Time;durP1;ratioP1;P1;durP2;ratioP2;P2;SDS_P1;SDS_P2;PMS_P1;PMS_P2;Temp;Humidity;BMP_temperature;BMP_pressure;BME280_temperature;BME280_humidity;BME280_pressure;Samples;Min_cycle;Max_cycle;Signal;HPM_P1;HPM_P2
2020/12/16 00:01:53;;;;;;;23.50;17.75;;;7.90;99.90;;;;;;5014015;28;20417;-66
2020/12/16 00:04:19;;;;;;;24.95;18.88;;;7.90;99.90;;;;;;5013749;28;20435;-66
2020/12/16 00:06:45;;;;;;;20.77;17.17;;;7.90;99.90;;;;;;5013348;28;20914;-66
2020/12/16 00:09:11;;;;;;;21.35;16.55;;;7.80;99.90;;;;;;5013484;28;20409;-66
2020/12/16 00:11:37;;;;;;;23.27;16.70;;;7.80;99.90;;;;;;5013203;28;20779;-66
2020/12/16 00:14:04;;;;;;;21.27;16.50;;;7.70;99.90;;;;;;5013498;28;20423;-66
2020/12/16 00:16:32;;;;;;;22.98;17.60;;;7.60;99.90;;;;;;5013377;28;20423;-66
2020/12/16 00:18:58;;;;;;;24.30;18.08;;;7.50;99.90;;;;;;5013407;28;20848;-66
2020/12/16 00:21:24;;;;;;;26.42;18.70;;;7.50;99.90;;;;;;5014381;28;20413;-66
2020/12/16 00:23:51;;;;;;;30.00;20.98;;;7.50;99.90;;;;;;5012813;28;20471;-66
2020/12/16 00:26:17;;;;;;;26.45;19.52;;;7.40;99.90;;;;;;5013053;28;20483;-66
2020/12/16 00:28:44;;;;;;;24.67;18.48;;;7.50;99.90;;;;;;5013008;28;20412;-67
2020/12/16 00:31:13;;;;;;;24.98;18.92;;;7.50;99.90;;;;;;5013175;28;20416;-67
2020/12/16 00:33:40;;;;;;;27.25;18.80;;;7.50;99.90;;;;;;5013067;28;20420;-66
2020/12/16 00:36:06;;;;;;;23.42;18.27;;;7.40;99.90;;;;;;5012945;28;20417;-66
2020/12/16 00:38:32;;;;;;;24.30;18.40;;;7.40;99.90;;;;;;5013123;28;20953;-66
2020/12/16 00:40:58;;;;;;;25.10;18.25;;;7.40;99.90;;;;;;5012695;28;20416;-66
2020/12/16 00:43:24;;;;;;;26.60;17.80;;;7.40;99.90;;;;;;5012913;28;20837;-66
2020/12/16 00:45:50;;;;;;;24.13;18.05;;;7.30;99.90;;;;;;5012790;28;20424;-66
2020/12/16 00:48:17;;;;;;;33.53;22.33;;;7.30;99.90;;;;;;5012468;28;20893;-66
2020/12/16 00:50:43;;;;;;;26.50;19.92;;;7.30;99.90;;;;;;5012576;28;20410;-67
2020/12/16 00:53:10;;;;;;;37.65;23.73;;;7.30;99.90;;;;;;5012465;28;20417;-66
2020/12/16 00:55:36;;;;;;;33.38;23.23;;;7.30;99.90;;;;;;5012936;28;20424;-66
2020/12/16 00:58:02;;;;;;;32.00;23.50;;;7.30;1.00;;;;;;5012606;28;20423;-67
2020/12/16 01:00:28;;;;;;;34.05;23.52;;;7.40;1.00;;;;;;5012533;28;20413;-67
2020/12/16 01:02:54;;;;;;;32.35;23.30;;;7.50;1.00;;;;;;5012451;28;20447;-66
2020/12/16 01:05:21;;;;;;;33.22;23.80;;;7.60;1.00;;;;;;5012050;28;20859;-67
2020/12/16 01:07:48;;;;;;;32.13;23.75;;;7.70;1.00;;;;;;5012137;28;20417;-66
2020/12/16 01:10:16;;;;;;;32.28;22.73;;;7.80;1.00;;;;;;5012110;28;20425;-67
2020/12/16 01:12:44;;;;;;;32.22;21.83;;;7.90;1.00;;;;;;5012424;28;20417;-66
2020/12/16 01:15:12;;;;;;;32.03;21.80;;;7.90;1.00;;;;;;5012109;28;20416;-67
2020/12/16 01:17:39;;;;;;;30.37;21.67;;;8.00;1.00;;;;;;5012114;28;20504;-67
2020/12/16 01:20:06;;;;;;;28.23;21.50;;;8.10;1.00;;;;;;5012046;28;20423;-66
2020/12/16 01:22:37;;;;;;;27.23;20.60;;;8.10;1.00;;;;;;5011952;28;20880;-66
2020/12/16 01:25:03;;;;;;;30.80;21.52;;;8.10;1.00;;;;;;5012383;28;20447;-66
2020/12/16 01:27:29;;;;;;;25.65;19.25;;;8.10;1.00;;;;;;5011879;28;20412;-66
2020/12/16 01:29:56;;;;;;;26.05;18.73;;;8.20;2.30;;;;;;5011993;28;20420;-67
2020/12/16 01:32:22;;;;;;;30.30;20.80;;;8.20;1.00;;;;;;5012335;28;20439;-66
2020/12/16 01:34:48;;;;;;;27.00;19.40;;;8.20;1.00;;;;;;5011728;28;20430;-66
2020/12/16 01:37:14;;;;;;;23.70;17.90;;;8.20;1.00;;;;;;5012347;28;20798;-67
2020/12/16 01:39:41;;;;;;;23.88;18.00;;;8.30;1.00;;;;;;5011938;28;20409;-67
2020/12/16 01:42:07;;;;;;;24.85;18.20;;;8.30;1.00;;;;;;5011852;28;20889;-66
2020/12/16 01:44:33;;;;;;;25.45;18.20;;;8.40;10.00;;;;;;5011679;28;20435;-66
2020/12/16 01:47:01;;;;;;;24.50;17.50;;;8.40;1.00;;;;;;5011539;28;20424;-67
2020/12/16 01:49:28;;;;;;;23.33;17.27;;;8.40;1.00;;;;;;5011870;28;20423;-67
2020/12/16 01:51:56;;;;;;;25.83;17.92;;;8.40;1.00;;;;;;5011636;28;20412;-66
2020/12/16 01:54:24;;;;;;;25.65;19.50;;;8.30;1.00;;;;;;5011705;28;20417;-66
2020/12/16 01:56:54;;;;;;;26.80;19.52;;;8.30;1.00;;;;;;5011348;28;20416;-66
2020/12/16 01:59:21;;;;;;;25.95;19.50;;;8.30;1.00;;;;;;5011690;28;20428;-66
2020/12/16 02:01:51;;;;;;;24.80;18.77;;;8.30;1.00;;;;;;5011585;28;20439;-66
2020/12/16 02:04:22;;;;;;;23.10;18.25;;;8.40;1.00;;;;;;5011335;28;20866;-66
2020/12/16 02:06:50;;;;;;;26.10;19.40;;;8.40;1.00;;;;;;5011579;28;20424;-66
2020/12/16 02:09:18;;;;;;;23.83;18.90;;;8.30;1.00;;;;;;5011356;28;20424;-66
2020/12/16 02:11:44;;;;;;;25.80;18.90;;;8.30;1.00;;;;;;5011511;28;20424;-66
2020/12/16 02:14:12;;;;;;;23.83;17.95;;;8.20;1.00;;;;;;5011754;28;20417;-66
2020/12/16 02:16:39;;;;;;;24.87;18.27;;;8.20;1.00;;;;;;5011632;28;20423;-66
2020/12/16 02:19:07;;;;;;;23.35;18.23;;;8.20;1.00;;;;;;5011913;28;20413;-66
2020/12/16 02:21:34;;;;;;;26.17;17.85;;;8.20;1.00;;;;;;5012404;28;20809;-66
2020/12/16 02:24:04;;;;;;;29.20;19.42;;;8.10;99.90;;;;;;5011825;28;20522;-66
2020/12/16 02:26:32;;;;;;;29.63;20.63;;;8.10;99.90;;;;;;5011119;28;20409;-66
2020/12/16 02:28:58;;;;;;;28.23;21.00;;;8.00;1.00;;;;;;5011328;28;20778;-66
2020/12/16 02:31:28;;;;;;;30.83;21.35;;;7.90;1.00;;;;;;5011431;28;20821;-66
2020/12/16 02:33:54;;;;;;;32.85;23.25;;;7.90;1.00;;;;;;5011244;28;20486;-66
2020/12/16 02:36:20;;;;;;;31.48;21.00;;;7.90;1.00;;;;;;5011338;28;20412;-66
2020/12/16 02:38:47;;;;;;;24.95;19.27;;;8.00;1.00;;;;;;5010993;28;20471;-66
2020/12/16 02:41:14;;;;;;;26.33;19.73;;;8.00;1.00;;;;;;5011024;28;20825;-66
2020/12/16 02:43:41;;;;;;;25.83;18.67;;;7.90;1.00;;;;;;5010951;28;20475;-66
2020/12/16 02:46:07;;;;;;;27.90;20.05;;;7.90;1.00;;;;;;5011239;28;20547;-66
2020/12/16 02:48:33;;;;;;;29.40;20.80;;;7.80;99.90;;;;;;5011181;28;20416;-66
2020/12/16 02:50:59;;;;;;;26.98;19.98;;;7.70;99.90;;;;;;5010874;28;20420;-66
2020/12/16 02:53:25;;;;;;;28.33;20.42;;;7.60;1.00;;;;;;5011028;28;20416;-66
2020/12/16 02:55:51;;;;;;;29.27;21.02;;;7.60;99.90;;;;;;5010847;28;20801;-66
2020/12/16 02:58:17;;;;;;;27.95;19.95;;;7.60;99.90;;;;;;5010928;28;20944;-66
2020/12/16 03:00:44;;;;;;;27.25;19.75;;;7.50;99.90;;;;;;5011084;28;20466;-66
2020/12/16 03:03:11;;;;;;;26.50;19.05;;;7.50;99.90;;;;;;5011260;28;20420;-66
2020/12/16 03:05:37;;;;;;;27.75;19.77;;;7.50;99.90;;;;;;5013198;28;20433;-66
2020/12/16 03:08:07;;;;;;;29.35;20.48;;;7.40;99.90;;;;;;5014623;28;20820;-66
2020/12/16 03:10:34;;;;;;;29.90;19.60;;;7.40;99.90;;;;;;5014785;28;20846;-66
2020/12/16 03:13:00;;;;;;;31.80;21.63;;;7.30;99.90;;;;;;5014722;28;20420;-66
2020/12/16 03:15:26;;;;;;;31.30;20.17;;;7.20;99.90;;;;;;5014329;28;20416;-66
2020/12/16 03:17:53;;;;;;;28.10;20.60;;;7.20;99.90;;;;;;5014496;28;20475;-66
2020/12/16 03:20:19;;;;;;;32.10;22.73;;;7.20;99.90;;;;;;5014642;28;20417;-66
2020/12/16 03:22:45;;;;;;;32.00;22.03;;;7.10;1.00;;;;;;5018512;28;20413;-66
2020/12/16 03:25:11;;;;;;;31.15;20.67;;;7.10;1.00;;;;;;5017706;28;20424;-66
2020/12/16 03:27:38;;;;;;;31.02;20.23;;;7.10;1.00;;;;;;5017480;28;20885;-66
2020/12/16 03:30:05;;;;;;;29.13;20.13;;;7.10;1.00;;;;;;5014619;28;20408;-66
2020/12/16 03:32:31;;;;;;;27.08;20.45;;;7.10;1.00;;;;;;5014203;28;20417;-66
2020/12/16 03:34:58;;;;;;;27.58;19.48;;;7.10;1.00;;;;;;5014270;28;20413;-66
2020/12/16 03:37:24;;;;;;;29.23;19.17;;;7.10;1.00;;;;;;5013904;28;20413;-66
2020/12/16 03:39:50;;;;;;;30.20;19.13;;;7.10;1.00;;;;;;5013811;28;20421;-67
2020/12/16 03:42:16;;;;;;;26.70;19.10;;;7.00;1.00;;;;;;5014182;28;20420;-66
2020/12/16 03:44:43;;;;;;;26.97;18.67;;;7.10;1.00;;;;;;5013810;28;20455;-66
2020/12/16 03:47:09;;;;;;;27.65;18.80;;;7.10;1.00;;;;;;5013874;28;20420;-66
2020/12/16 03:49:35;;;;;;;26.70;18.60;;;7.00;1.00;;;;;;5013746;28;20418;-66
2020/12/16 03:52:02;;;;;;;30.23;20.30;;;7.00;99.90;;;;;;5013918;28;20908;-66
2020/12/16 03:54:28;;;;;;;31.38;19.65;;;7.00;99.90;;;;;;5013475;28;20424;-66
2020/12/16 03:56:54;;;;;;;34.70;21.48;;;6.90;1.00;;;;;;5013689;28;20420;-66
2020/12/16 03:59:20;;;;;;;29.15;19.63;;;6.90;1.00;;;;;;5013842;28;20420;-66
2020/12/16 04:01:46;;;;;;;29.60;20.33;;;6.80;1.00;;;;;;5013610;28;20428;-66
2020/12/16 04:04:13;;;;;;;32.95;21.08;;;6.80;1.00;;;;;;5013625;28;20420;-66
2020/12/16 04:06:39;;;;;;;37.28;22.40;;;6.70;1.00;;;;;;5013360;28;20413;-66
2020/12/16 04:09:06;;;;;;;33.15;20.75;;;6.70;1.00;;;;;;5013460;28;20483;-66
2020/12/16 04:11:32;;;;;;;34.30;21.27;;;6.80;1.00;;;;;;5013652;28;20788;-66
2020/12/16 04:13:58;;;;;;;34.53;21.53;;;6.80;1.00;;;;;;5013177;28;20498;-66
2020/12/16 04:16:25;;;;;;;38.95;22.80;;;6.70;34.10;;;;;;5012247;28;20414;-66
2020/12/16 04:18:51;;;;;;;35.90;22.48;;;6.80;99.90;;;;;;5013193;28;20412;-66
2020/12/16 04:21:19;;;;;;;37.78;21.95;;;6.80;99.90;;;;;;5013512;28;20443;-66
2020/12/16 04:23:46;;;;;;;37.17;21.90;;;6.80;99.90;;;;;;5013209;28;20458;-66
2020/12/16 04:26:14;;;;;;;37.38;23.10;;;6.70;99.90;;;;;;5013282;28;20439;-66
2020/12/16 04:28:40;;;;;;;33.38;22.30;;;6.80;99.90;;;;;;5012897;28;20425;-66
2020/12/16 04:31:10;;;;;;;33.33;21.10;;;6.80;99.90;;;;;;5013054;28;20424;-66
2020/12/16 04:33:36;;;;;;;36.47;20.77;;;6.80;99.90;;;;;;5012975;28;20512;-66
2020/12/16 04:36:02;;;;;;;40.70;23.45;;;6.80;99.90;;;;;;5012641;28;20404;-66
2020/12/16 04:38:28;;;;;;;37.50;22.70;;;6.70;99.90;;;;;;5012949;28;20419;-66
2020/12/16 04:40:55;;;;;;;31.33;20.33;;;6.70;99.90;;;;;;5012725;28;20491;-66
2020/12/16 04:43:23;;;;;;;27.88;19.02;;;6.70;99.90;;;;;;5012798;28;20421;-66
2020/12/16 04:45:51;;;;;;;32.70;19.37;;;6.70;99.90;;;;;;5012759;28;20429;-66
2020/12/16 04:48:18;;;;;;;28.90;18.37;;;6.70;99.90;;;;;;5012763;28;20417;-66
2020/12/16 04:50:45;;;;;;;30.80;19.08;;;6.70;99.90;;;;;;5012602;28;20425;-66
2020/12/16 04:53:14;;;;;;;26.70;18.40;;;6.70;99.90;;;;;;5012844;28;20417;-66
2020/12/16 04:55:41;;;;;;;28.25;16.67;;;6.70;99.90;;;;;;5012175;28;20924;-66
2020/12/16 04:58:09;;;;;;;30.10;18.25;;;6.60;77.50;;;;;;5012506;28;20413;-66
2020/12/16 05:00:36;;;;;;;29.27;17.83;;;6.60;5.50;;;;;;5012355;28;20417;-67
2020/12/16 05:03:04;;;;;;;27.02;17.33;;;6.50;1.00;;;;;;5012300;28;20414;-67
2020/12/16 05:05:32;;;;;;;34.03;18.80;;;6.50;1.00;;;;;;5012260;28;20432;-67
2020/12/16 05:07:58;;;;;;;30.83;18.30;;;6.40;1.00;;;;;;5012507;28;20418;-66
2020/12/16 05:10:35;;;;;;;26.50;17.60;;;6.40;1.00;;;;;;5012491;28;20399;-66
2020/12/16 05:13:03;;;;;;;28.45;18.20;;;6.40;1.00;;;;;;5012376;28;20413;-66
2020/12/16 05:15:29;;;;;;;35.13;20.15;;;6.40;1.00;;;;;;5012309;28;20409;-66
2020/12/16 05:18:06;;;;;;;34.70;19.23;;;6.40;1.00;;;;;;5010043;28;20420;-66
2020/12/16 05:20:33;;;;;;;33.50;20.48;;;6.40;1.00;;;;;;5012059;28;20421;-66
2020/12/16 05:23:00;;;;;;;37.78;20.20;;;6.40;1.00;;;;;;5012208;28;20417;-67
2020/12/16 05:25:27;;;;;;;38.33;20.00;;;6.40;25.90;;;;;;5012293;28;20455;-66
2020/12/16 05:27:53;;;;;;;32.90;19.52;;;6.40;63.40;;;;;;5011993;28;20920;-67
2020/12/16 05:30:19;;;;;;;36.53;20.50;;;6.40;99.90;;;;;;5011577;28;20482;-66
2020/12/16 05:32:46;;;;;;;32.28;18.15;;;6.50;99.90;;;;;;5011983;28;20416;-66
2020/12/16 05:35:25;;;;;;;33.38;19.58;;;6.50;99.90;;;;;;5011717;28;20412;-66
2020/12/16 05:37:51;;;;;;;29.75;18.48;;;6.40;56.50;;;;;;5011780;28;20421;-67
2020/12/16 05:40:21;;;;;;;30.15;17.23;;;6.50;1.00;;;;;;5011815;28;20814;-66
2020/12/16 05:42:48;;;;;;;25.15;16.88;;;6.50;1.00;;;;;;5011497;28;20418;-66
2020/12/16 05:45:17;;;;;;;33.03;17.85;;;6.40;1.00;;;;;;5012036;28;20436;-66
2020/12/16 05:48:00;;;;;;;24.65;16.90;;;6.30;1.00;;;;;;5012247;28;20424;-66
2020/12/16 05:50:31;;;;;;;24.15;17.23;;;6.30;1.00;;;;;;5011812;28;20473;-66
2020/12/16 05:53:13;;;;;;;29.70;17.58;;;6.20;1.00;;;;;;5011809;28;21081;-66
2020/12/16 05:55:39;;;;;;;30.25;17.17;;;6.20;1.00;;;;;;5012102;28;20750;-66
2020/12/16 05:58:07;;;;;;;30.35;17.58;;;6.20;1.00;;;;;;5011568;28;20896;-67
2020/12/16 06:00:42;;;;;;;32.33;17.63;;;6.20;1.00;;;;;;5011350;28;20791;-66
2020/12/16 06:03:15;;;;;;;39.45;20.75;;;6.20;1.00;;;;;;5011722;28;20416;-66
2020/12/16 06:05:45;;;;;;;44.22;22.20;;;6.20;1.00;;;;;;5010897;28;20924;-67
2020/12/16 06:08:11;;;;;;;34.00;19.92;;;6.20;99.90;;;;;;5011662;28;20417;-66
2020/12/16 06:10:42;;;;;;;39.15;20.15;;;6.20;99.90;;;;;;5011340;28;20404;-66
2020/12/16 06:13:12;;;;;;;44.72;21.65;;;6.20;99.90;;;;;;5011450;28;20420;-66
2020/12/16 06:16:00;;;;;;;45.17;22.98;;;6.20;99.90;;;;;;5011190;28;20973;-67
2020/12/16 06:18:28;;;;;;;45.50;22.77;;;6.20;99.90;;;;;;5011196;28;20523;-66
2020/12/16 06:20:56;;;;;;;48.60;23.05;;;6.20;1.00;;;;;;5010988;28;20420;-66
2020/12/16 06:23:28;;;;;;;48.72;24.20;;;6.20;1.00;;;;;;5011113;28;20412;-66
2020/12/16 06:25:57;;;;;;;45.25;22.95;;;6.30;1.00;;;;;;5011325;28;20428;-66
2020/12/16 06:28:24;;;;;;;43.47;22.67;;;6.40;2.40;;;;;;5004386;28;20422;-68
2020/12/16 06:31:00;;;;;;;38.75;21.08;;;6.40;75.10;;;;;;4990936;28;20422;-69
2020/12/16 06:33:35;;;;;;;38.15;19.55;;;6.50;99.90;;;;;;4991780;28;20445;-67
2020/12/16 06:36:05;;;;;;;36.65;19.65;;;6.60;70.30;;;;;;4991506;28;20811;-67
2020/12/16 06:38:39;;;;;;;37.75;19.83;;;6.50;1.00;;;;;;4991360;28;20418;-68
2020/12/16 06:41:11;;;;;;;40.22;20.63;;;6.50;1.00;;;;;;4994463;28;20414;-67
2020/12/16 06:43:44;;;;;;;37.53;20.77;;;6.40;1.00;;;;;;4996034;28;20803;-66
2020/12/16 06:46:45;;;;;;;48.53;21.60;;;6.40;1.00;;;;;;4995014;28;20920;-65
2020/12/16 06:49:38;;;;;;;40.97;19.70;;;6.40;21.50;;;;;;4995096;28;20425;-64
2020/12/16 06:52:07;;;;;;;35.53;19.80;;;6.40;99.90;;;;;;4995284;28;20907;-64
2020/12/16 06:54:54;;;;;;;42.67;21.52;;;6.40;99.90;;;;;;4995643;28;20423;-66
2020/12/16 06:57:24;;;;;;;47.00;23.00;;;6.40;49.40;;;;;;4995239;28;20920;-65
2020/12/16 07:00:00;;;;;;;46.40;22.15;;;6.30;99.90;;;;;;4995013;28;20505;-66
2020/12/16 07:02:30;;;;;;;46.15;23.20;;;6.50;99.90;;;;;;4995477;28;20511;-67
2020/12/16 07:04:58;;;;;;;44.97;21.67;;;6.70;1.00;;;;;;4995755;28;20445;-68
2020/12/16 07:07:48;;;;;;;40.87;21.53;;;6.70;1.00;;;;;;4995634;28;20802;-65
2020/12/16 07:10:42;;;;;;;33.10;20.95;;;6.80;1.00;;;;;;4994504;28;20418;-65
2020/12/16 07:13:20;;;;;;;31.80;18.65;;;6.80;1.00;;;;;;4995195;28;20432;-64
2020/12/16 07:15:48;;;;;;;31.48;18.00;;;6.90;1.00;;;;;;4994970;28;20831;-66
2020/12/16 07:18:20;;;;;;;38.83;19.52;;;6.90;1.00;;;;;;4994275;28;20418;-66
2020/12/16 07:20:47;;;;;;;35.58;20.67;;;6.80;99.90;;;;;;4994471;28;20444;-65
2020/12/16 07:23:14;;;;;;;33.22;20.10;;;6.80;99.90;;;;;;4995014;28;20421;-65
2020/12/16 07:25:44;;;;;;;36.25;20.55;;;6.90;99.90;;;;;;4994884;28;20846;-66
2020/12/16 07:28:12;;;;;;;34.58;18.77;;;6.90;99.90;;;;;;4994727;28;20509;-65
2020/12/16 07:30:49;;;;;;;33.17;19.35;;;7.00;99.90;;;;;;4994072;28;20480;-64
2020/12/16 07:33:16;;;;;;;32.33;18.17;;;7.00;99.90;;;;;;4994848;28;20442;-63
2020/12/16 07:35:45;;;;;;;37.05;18.83;;;7.10;99.90;;;;;;4994691;28;20425;-64
2020/12/16 07:38:12;;;;;;;35.88;20.42;;;7.10;99.90;;;;;;4994720;28;20922;-63
2020/12/16 07:40:39;;;;;;;34.90;19.88;;;7.10;99.90;;;;;;4994276;28;20887;-64
2020/12/16 07:43:07;;;;;;;40.53;20.20;;;7.10;99.90;;;;;;4994537;28;20425;-63
2020/12/16 07:45:33;;;;;;;35.03;18.83;;;7.20;1.00;;;;;;4994311;28;20436;-64
2020/12/16 07:48:00;;;;;;;31.80;18.13;;;7.20;1.00;;;;;;4994331;28;20430;-64
2020/12/16 07:50:26;;;;;;;34.20;18.42;;;7.30;1.00;;;;;;4994062;28;20473;-63
2020/12/16 07:52:52;;;;;;;38.53;18.85;;;7.30;1.00;;;;;;4994594;28;20418;-63
2020/12/16 07:55:22;;;;;;;36.90;20.00;;;7.30;1.00;;;;;;4994979;28;20849;-64
2020/12/16 07:57:50;;;;;;;36.08;19.42;;;7.30;1.00;;;;;;4995838;28;20410;-64
2020/12/16 08:00:22;;;;;;;34.53;18.77;;;7.30;1.00;;;;;;5001906;28;20418;-65
2020/12/16 08:02:51;;;;;;;32.45;17.58;;;7.40;1.00;;;;;;5004160;28;20431;-64
2020/12/16 08:05:17;;;;;;;28.00;16.65;;;7.40;1.00;;;;;;4998380;28;20489;-64
2020/12/16 08:07:43;;;;;;;33.53;18.17;;;7.40;1.00;;;;;;4994468;28;20422;-64
2020/12/16 08:10:10;;;;;;;29.08;16.40;;;7.40;99.90;;;;;;4994258;28;20422;-64
2020/12/16 08:12:40;;;;;;;25.57;15.20;;;7.40;1.00;;;;;;4995696;28;20494;-64
2020/12/16 08:15:09;;;;;;;25.00;15.60;;;7.40;99.90;;;;;;5002784;28;20414;-64
2020/12/16 08:17:40;;;;;;;27.35;14.57;;;7.30;99.90;;;;;;5004557;28;20421;-64
2020/12/16 08:20:11;;;;;;;24.33;15.60;;;7.30;95.20;;;;;;4999889;28;20418;-64
2020/12/16 08:22:39;;;;;;;21.17;13.68;;;7.30;99.90;;;;;;4999682;28;20513;-63
2020/12/16 08:25:10;;;;;;;22.10;14.95;;;7.40;1.00;;;;;;4997224;28;20430;-64
2020/12/16 08:27:37;;;;;;;23.73;15.07;;;7.30;1.00;;;;;;4994511;28;20505;-64
2020/12/16 08:30:05;;;;;;;23.67;14.10;;;7.30;16.10;;;;;;4993383;28;20418;-64
2020/12/16 08:32:40;;;;;;;21.88;14.18;;;7.40;1.00;;;;;;4993807;28;20896;-64
2020/12/16 08:35:12;;;;;;;21.23;14.30;;;7.40;1.00;;;;;;4994493;28;20429;-63
2020/12/16 08:37:41;;;;;;;20.42;13.52;;;7.50;99.00;;;;;;4997868;28;20775;-63
2020/12/16 08:40:08;;;;;;;19.33;13.60;;;7.50;1.00;;;;;;4993536;28;20786;-63
2020/12/16 08:42:35;;;;;;;22.70;13.55;;;7.50;1.00;;;;;;4993790;28;20422;-63
2020/12/16 08:45:07;;;;;;;23.33;14.00;;;7.50;1.00;;;;;;4992798;28;21328;-64
2020/12/16 08:47:35;;;;;;;20.20;13.07;;;7.50;2.50;;;;;;4993365;28;20480;-64
2020/12/16 08:50:03;;;;;;;19.13;13.53;;;7.60;1.00;;;;;;4993194;28;20863;-63
2020/12/16 08:52:38;;;;;;;16.17;12.30;;;7.70;1.00;;;;;;4993625;28;20695;-63
2020/12/16 08:55:14;;;;;;;15.80;12.60;;;7.80;1.00;;;;;;4993589;28;20782;-64
2020/12/16 08:57:55;;;;;;;15.65;11.65;;;7.90;1.00;;;;;;4993421;28;20414;-63
2020/12/16 09:00:32;;;;;;;16.10;11.60;;;7.90;1.00;;;;;;4992998;28;20456;-64
2020/12/16 09:03:08;;;;;;;17.98;11.70;;;7.80;99.90;;;;;;4993064;28;20422;-64
2020/12/16 09:05:36;;;;;;;16.13;11.65;;;7.90;99.90;;;;;;4993368;28;21022;-63
2020/12/16 09:08:12;;;;;;;13.95;10.25;;;8.10;1.00;;;;;;4993372;28;20415;-63
2020/12/16 09:10:39;;;;;;;13.93;10.73;;;8.20;99.90;;;;;;4992340;28;20910;-64
2020/12/16 09:13:10;;;;;;;15.27;10.45;;;8.30;99.90;;;;;;4992915;28;20787;-63
2020/12/16 09:15:37;;;;;;;12.80;9.93;;;8.40;99.90;;;;;;4992977;28;20801;-64
2020/12/16 09:18:03;;;;;;;12.73;9.75;;;8.40;99.90;;;;;;4992778;28;20414;-63
2020/12/16 09:20:31;;;;;;;11.55;9.50;;;8.40;99.90;;;;;;4992512;28;20426;-64
2020/12/16 09:22:58;;;;;;;9.52;8.55;;;8.50;99.90;;;;;;4992781;28;20418;-64
2020/12/16 09:25:25;;;;;;;11.25;9.07;;;8.50;26.40;;;;;;4992708;28;20773;-64
2020/12/16 09:27:52;;;;;;;10.68;9.40;;;8.40;1.00;;;;;;4992293;28;20429;-64
2020/12/16 09:30:29;;;;;;;9.40;8.40;;;8.60;1.00;;;;;;4992006;28;20437;-63
2020/12/16 09:32:56;;;;;;;11.63;9.75;;;8.60;1.00;;;;;;4992663;28;20891;-64
2020/12/16 09:35:23;;;;;;;10.03;8.03;;;8.70;1.00;;;;;;4992438;28;20418;-63
2020/12/16 09:37:50;;;;;;;9.65;8.20;;;8.80;1.00;;;;;;4992563;28;20418;-64
2020/12/16 09:40:17;;;;;;;9.25;8.05;;;8.90;1.00;;;;;;4991823;28;20422;-64
2020/12/16 09:42:54;;;;;;;8.67;7.50;;;9.00;99.90;;;;;;4992375;28;20423;-63
2020/12/16 09:45:21;;;;;;;8.60;7.70;;;9.10;99.90;;;;;;4992775;28;20430;-64
2020/12/16 09:47:49;;;;;;;8.00;7.20;;;9.10;99.90;;;;;;4992465;28;20418;-64
2020/12/16 09:50:16;;;;;;;8.63;7.72;;;9.20;99.90;;;;;;4992046;28;20905;-63
2020/12/16 09:52:42;;;;;;;9.23;7.63;;;9.20;99.90;;;;;;4992388;28;20414;-64
2020/12/16 09:55:14;;;;;;;7.32;6.63;;;9.30;99.90;;;;;;4993430;28;20414;-64
2020/12/16 09:57:41;;;;;;;8.20;7.40;;;9.30;57.80;;;;;;4993141;28;20428;-64
2020/12/16 10:00:08;;;;;;;7.88;6.13;;;9.30;99.90;;;;;;4992245;28;20418;-64
2020/12/16 10:02:34;;;;;;;6.97;6.00;;;9.40;17.90;;;;;;4992615;28;20421;-64
2020/12/16 10:05:00;;;;;;;6.77;6.07;;;9.40;1.00;;;;;;4992238;28;20418;-63
2020/12/16 10:07:30;;;;;;;6.60;5.80;;;9.40;1.00;;;;;;4991906;28;20831;-63
2020/12/16 10:09:56;;;;;;;6.50;5.90;;;9.40;1.00;;;;;;4991996;28;20410;-64
2020/12/16 10:12:23;;;;;;;6.30;5.70;;;9.30;1.00;;;;;;4992791;28;20418;-64
2020/12/16 10:14:49;;;;;;;7.10;6.40;;;9.30;1.00;;;;;;4992021;28;20419;-64
2020/12/16 10:17:19;;;;;;;6.55;5.85;;;9.30;1.00;;;;;;4992185;28;20429;-64
2020/12/16 10:19:45;;;;;;;6.85;6.10;;;9.50;1.00;;;;;;4991237;28;20422;-65
2020/12/16 10:22:11;;;;;;;6.20;5.60;;;9.60;1.00;;;;;;4992305;28;20429;-64
2020/12/16 10:24:37;;;;;;;6.45;5.38;;;9.90;1.00;;;;;;4991911;28;20429;-64
2020/12/16 10:27:04;;;;;;;5.17;4.67;;;10.10;1.00;;;;;;4991992;28;20436;-64
2020/12/16 10:29:31;;;;;;;4.70;4.30;;;10.30;1.00;;;;;;4991550;28;20428;-64
2020/12/16 10:31:57;;;;;;;5.70;4.80;;;10.50;1.00;;;;;;4991809;28;20799;-64
2020/12/16 10:34:23;;;;;;;4.95;4.55;;;10.80;1.00;;;;;;4991622;28;20883;-64
2020/12/16 10:36:50;;;;;;;5.10;4.60;;;10.90;99.90;;;;;;4991998;28;20551;-64
2020/12/16 10:39:16;;;;;;;4.90;4.10;;;11.00;99.90;;;;;;4991421;28;20534;-64
2020/12/16 10:41:43;;;;;;;4.78;4.20;;;11.10;99.90;;;;;;4991593;28;20941;-65
2020/12/16 10:44:09;;;;;;;5.90;4.57;;;11.00;66.70;;;;;;4991766;28;20464;-65
2020/12/16 10:46:36;;;;;;;4.27;3.87;;;10.80;80.70;;;;;;4991760;28;20430;-64
2020/12/16 10:49:03;;;;;;;4.57;4.00;;;10.80;95.40;;;;;;4991048;28;20418;-65
2020/12/16 10:51:29;;;;;;;4.47;4.07;;;10.80;40.80;;;;;;4991818;28;20429;-64
2020/12/16 10:53:55;;;;;;;3.70;3.40;;;10.90;6.30;;;;;;4991657;28;20977;-65
2020/12/16 10:56:21;;;;;;;4.50;3.60;;;10.90;8.80;;;;;;4992069;28;20421;-64
2020/12/16 10:58:49;;;;;;;4.00;3.60;;;10.80;1.00;;;;;;4992949;28;20794;-64
2020/12/16 11:01:16;;;;;;;3.88;3.47;;;11.00;2.90;;;;;;4991430;28;20426;-64
2020/12/16 11:03:42;;;;;;;4.32;3.92;;;11.10;1.00;;;;;;4991545;28;20480;-65
2020/12/16 11:06:09;;;;;;;4.55;3.72;;;11.00;1.00;;;;;;4991680;28;20457;-65
2020/12/16 11:08:35;;;;;;;4.43;3.70;;;11.10;1.00;;;;;;4991468;28;20418;-65
2020/12/16 11:11:01;;;;;;;4.00;3.60;;;11.30;1.00;;;;;;4993818;28;20423;-68
2020/12/16 11:13:27;;;;;;;3.80;3.50;;;11.10;1.00;;;;;;5011964;28;20463;-69
2020/12/16 11:15:54;;;;;;;4.27;3.77;;;11.10;1.00;;;;;;5011653;28;20413;-66
2020/12/16 11:18:20;;;;;;;3.90;3.60;;;11.00;1.00;;;;;;5011579;28;20417;-66
2020/12/16 11:20:46;;;;;;;3.78;3.47;;;11.00;1.00;;;;;;5009627;28;20778;-65
2020/12/16 11:23:12;;;;;;;4.20;3.90;;;11.10;1.00;;;;;;5011058;28;20479;-65
2020/12/16 11:25:39;;;;;;;4.30;3.90;;;11.10;1.00;;;;;;5011122;28;20909;-66
2020/12/16 11:28:05;;;;;;;4.20;3.80;;;11.10;1.00;;;;;;5013974;28;20889;-66
2020/12/16 11:30:31;;;;;;;3.80;3.40;;;11.20;1.00;;;;;;5013499;28;20479;-66
2020/12/16 11:32:58;;;;;;;4.38;3.05;;;11.20;1.00;;;;;;5013935;28;20471;-66
2020/12/16 11:35:24;;;;;;;3.80;3.50;;;11.40;1.00;;;;;;5014936;28;20417;-65
2020/12/16 11:37:50;;;;;;;3.60;3.30;;;11.40;99.90;;;;;;5015611;28;20424;-66
2020/12/16 11:40:17;;;;;;;3.60;3.30;;;11.50;99.90;;;;;;5014107;28;20428;-65
2020/12/16 11:42:44;;;;;;;3.90;3.50;;;11.50;99.90;;;;;;5014221;28;20425;-66
2020/12/16 11:45:13;;;;;;;3.90;3.60;;;11.40;99.90;;;;;;5014191;28;20417;-66
2020/12/16 11:47:40;;;;;;;3.77;3.47;;;11.50;99.90;;;;;;5014381;28;20440;-66
2020/12/16 11:50:09;;;;;;;3.40;3.10;;;11.50;99.90;;;;;;5013838;28;20506;-66
2020/12/16 11:52:36;;;;;;;3.50;2.90;;;11.60;99.90;;;;;;5015551;28;20428;-68
2020/12/16 11:55:02;;;;;;;3.30;3.00;;;11.70;99.90;;;;;;5014934;28;20488;-65
2020/12/16 11:57:28;;;;;;;3.38;2.70;;;11.90;99.90;;;;;;5013772;28;20412;-64
2020/12/16 11:59:54;;;;;;;3.65;3.17;;;12.00;99.90;;;;;;5013488;28;20414;-64
2020/12/16 12:02:20;;;;;;;2.97;2.78;;;12.20;99.90;;;;;;5014278;28;21106;-65
2020/12/16 12:04:47;;;;;;;3.38;3.08;;;12.20;99.90;;;;;;5014124;28;21039;-65
2020/12/16 12:07:14;;;;;;;3.30;3.00;;;12.20;99.90;;;;;;5013776;28;20429;-64
2020/12/16 12:09:40;;;;;;;3.65;3.35;;;12.10;99.90;;;;;;5013667;28;20833;-64
2020/12/16 12:12:06;;;;;;;3.90;3.60;;;12.00;99.90;;;;;;5013613;28;20518;-64
2020/12/16 12:14:32;;;;;;;3.30;3.00;;;12.00;99.90;;;;;;5013163;28;20419;-64
2020/12/16 12:16:58;;;;;;;4.20;3.80;;;11.90;99.90;;;;;;5014096;28;20416;-63
2020/12/16 12:19:25;;;;;;;3.60;3.30;;;11.80;99.90;;;;;;5013424;28;20416;-63
2020/12/16 12:21:52;;;;;;;4.10;3.70;;;11.70;99.90;;;;;;5013822;28;20421;-63
2020/12/16 12:24:19;;;;;;;4.57;4.18;;;11.70;99.90;;;;;;5013269;28;20416;-63
2020/12/16 12:26:45;;;;;;;4.10;3.80;;;11.70;99.90;;;;;;5013350;28;20508;-63
2020/12/16 12:29:11;;;;;;;4.30;3.67;;;11.60;99.90;;;;;;5013869;28;20425;-63
2020/12/16 12:31:37;;;;;;;4.10;3.70;;;11.50;99.90;;;;;;5014457;28;20424;-63
2020/12/16 12:34:03;;;;;;;4.38;3.97;;;11.50;99.90;;;;;;5014285;28;20412;-63
2020/12/16 12:36:29;;;;;;;4.30;3.90;;;11.40;99.90;;;;;;5013442;28;20441;-62
2020/12/16 12:38:56;;;;;;;4.28;3.88;;;11.50;99.90;;;;;;5013053;28;20797;-64
2020/12/16 12:41:23;;;;;;;4.45;4.05;;;11.30;99.90;;;;;;5012644;28;20472;-64
2020/12/16 12:43:50;;;;;;;5.32;4.10;;;11.30;99.90;;;;;;5012873;28;20492;-65
2020/12/16 12:46:16;;;;;;;4.15;3.72;;;11.30;99.90;;;;;;5013486;28;20437;-64
2020/12/16 12:48:43;;;;;;;4.03;3.72;;;11.40;99.90;;;;;;5013021;28;20416;-64
2020/12/16 12:51:10;;;;;;;4.50;4.10;;;11.50;99.90;;;;;;5013140;28;20853;-64